Terminal Aerodrome Forecast
Issued by NWS Tallahassee, FL

Current Version | Previous Version | Text Only | Print | Product List | Glossary On
Versions: 1 2 3 4 5 6 7 8 9 10 11 12 13 14 15 16 17 18 19 20 21 22
531
FTUS42 KTAE 201738
TAFTLH
TAF
KTLH 201738Z 2018/2118 13008KT P6SM SCT250
     FM210200 VRB02KT P6SM BKN250
     FM211500 13007KT P6SM OVC040=

USA.gov is the U.S. government's official web portal to all federal, state and local government web resources and services.